Time;durP1;ratioP1;P1;durP2;ratioP2;P2;SDS_P1;SDS_P2;PMS_P1;PMS_P2;Temp;Humidity;BMP_temperature;BMP_pressure;BME280_temperature;BME280_humidity;BME280_pressure;Samples;Min_cycle;Max_cycle;Signal;HPM_P1;HPM_P2
2023/01/01 00:01:44;;;;;;;28.02;16.42;;;13.90;99.90;;;;;;5087356;28;20410;-74
2023/01/01 00:04:14;;;;;;;20.57;11.03;;;13.90;99.90;;;;;;5092953;28;20442;-74
2023/01/01 00:06:41;;;;;;;19.90;9.23;;;14.00;99.90;;;;;;5092190;28;20407;-73
2023/01/01 00:11:50;;;;;;;15.57;8.10;;;14.00;99.90;;;;;;5088175;28;20976;-74
2023/01/01 00:14:16;;;;;;;16.73;8.15;;;14.00;99.90;;;;;;5095857;28;20455;-74
2023/01/01 00:16:42;;;;;;;17.37;9.17;;;14.00;99.90;;;;;;5088843;28;20832;-74
2023/01/01 00:19:07;;;;;;;21.60;12.43;;;14.00;99.90;;;;;;5091935;28;20408;-74
2023/01/01 00:21:33;;;;;;;16.03;8.10;;;13.90;99.90;;;;;;5090696;28;20409;-74
2023/01/01 00:23:58;;;;;;;16.37;7.90;;;13.90;99.90;;;;;;5095381;28;20402;-74
2023/01/01 00:26:24;;;;;;;16.88;9.00;;;14.00;99.90;;;;;;5087393;28;20402;-74
2023/01/01 00:28:50;;;;;;;21.47;10.00;;;13.90;99.90;;;;;;5093770;28;20414;-74
2023/01/01 00:31:18;;;;;;;16.67;9.10;;;13.90;99.90;;;;;;5088529;28;20410;-74
2023/01/01 00:33:45;;;;;;;22.42;10.48;;;13.90;99.90;;;;;;5092968;28;20951;-74
2023/01/01 00:36:15;;;;;;;15.88;8.68;;;13.80;99.90;;;;;;5088472;28;20461;-74
2023/01/01 00:38:43;;;;;;;15.32;8.20;;;13.80;99.90;;;;;;5091764;28;20485;-74
2023/01/01 00:41:09;;;;;;;16.53;8.10;;;13.70;99.90;;;;;;5087205;28;20855;-74
2023/01/01 00:43:35;;;;;;;16.40;8.57;;;13.60;99.90;;;;;;5095997;28;20415;-74
2023/01/01 00:46:01;;;;;;;19.03;9.50;;;13.50;99.90;;;;;;5091402;28;20410;-74
2023/01/01 00:48:27;;;;;;;16.13;9.57;;;13.50;99.90;;;;;;5079174;28;20486;-74
2023/01/01 00:50:53;;;;;;;17.75;9.10;;;13.40;99.90;;;;;;5087011;28;20416;-74
2023/01/01 00:53:19;;;;;;;18.37;9.47;;;13.40;99.90;;;;;;5087026;28;20413;-74
2023/01/01 00:55:47;;;;;;;19.03;9.83;;;13.40;99.90;;;;;;5087839;28;20426;-74
2023/01/01 00:58:13;;;;;;;18.75;9.35;;;13.30;99.90;;;;;;5087850;28;20923;-74
2023/01/01 01:00:38;;;;;;;16.73;9.32;;;13.30;99.90;;;;;;5087957;28;20398;-74
2023/01/01 01:03:04;;;;;;;17.27;9.87;;;13.30;99.90;;;;;;5087963;28;20413;-74
2023/01/01 01:05:31;;;;;;;17.02;9.45;;;13.30;99.90;;;;;;5087374;28;20417;-74
2023/01/01 01:07:57;;;;;;;21.47;10.10;;;13.30;99.90;;;;;;5088695;28;20409;-74
2023/01/01 01:10:24;;;;;;;22.10;10.63;;;13.30;99.90;;;;;;5088595;28;20481;-74
2023/01/01 01:12:51;;;;;;;18.80;10.35;;;13.30;99.90;;;;;;5087888;28;20413;-74
2023/01/01 01:15:17;;;;;;;21.60;11.52;;;13.30;99.90;;;;;;5085490;28;20432;-75
2023/01/01 01:17:43;;;;;;;18.90;10.63;;;13.40;99.90;;;;;;5085565;28;20418;-75
2023/01/01 01:20:09;;;;;;;21.92;11.13;;;13.40;99.90;;;;;;5068999;28;20426;-75
2023/01/01 01:22:35;;;;;;;25.50;13.95;;;13.40;99.90;;;;;;5086587;28;20402;-74
2023/01/01 01:25:00;;;;;;;22.83;14.63;;;13.30;99.90;;;;;;5085243;28;20417;-74
2023/01/01 01:27:26;;;;;;;25.98;15.00;;;13.20;99.90;;;;;;5085121;28;20425;-75
2023/01/01 01:29:52;;;;;;;22.83;14.00;;;13.10;99.90;;;;;;5078335;28;20786;-75
2023/01/01 01:32:18;;;;;;;23.87;14.53;;;13.10;99.90;;;;;;5067426;28;20499;-75
2023/01/01 01:34:44;;;;;;;23.98;14.38;;;13.10;99.90;;;;;;5078536;28;20951;-75
2023/01/01 01:37:10;;;;;;;25.00;15.27;;;13.10;99.90;;;;;;5080224;28;20434;-75
2023/01/01 01:39:37;;;;;;;23.15;14.68;;;13.10;99.90;;;;;;5074059;28;20919;-75
2023/01/01 01:42:03;;;;;;;25.55;15.88;;;13.00;99.90;;;;;;5090969;28;20411;-75
2023/01/01 01:44:54;;;;;;;23.77;14.52;;;13.00;99.90;;;;;;5086073;28;20451;-75
2023/01/01 01:47:45;;;;;;;25.55;16.80;;;12.90;99.90;;;;;;5090730;28;20414;-75
2023/01/01 01:50:17;;;;;;;25.60;16.65;;;12.90;99.90;;;;;;5097087;28;20409;-75
2023/01/01 01:52:59;;;;;;;27.48;17.38;;;12.90;99.90;;;;;;5091969;28;20406;-75
2023/01/01 01:55:29;;;;;;;27.02;18.70;;;13.00;99.90;;;;;;5090470;28;20429;-74
2023/01/01 01:57:56;;;;;;;33.22;21.17;;;12.90;99.90;;;;;;5093561;28;20471;-75
2023/01/01 02:00:21;;;;;;;32.47;23.48;;;12.90;99.90;;;;;;5093403;28;20915;-75
2023/01/01 02:02:53;;;;;;;35.20;21.60;;;12.80;99.90;;;;;;5089005;28;20400;-75
2023/01/01 02:05:20;;;;;;;35.70;23.50;;;12.70;99.90;;;;;;5092673;28;20768;-75
2023/01/01 02:07:46;;;;;;;38.78;24.77;;;12.60;99.90;;;;;;5095584;28;20404;-75
2023/01/01 02:10:11;;;;;;;39.30;23.92;;;12.50;99.90;;;;;;5093866;28;20439;-74
2023/01/01 02:12:37;;;;;;;37.17;25.53;;;12.50;99.90;;;;;;5093548;28;20822;-74
2023/01/01 02:15:05;;;;;;;39.15;26.73;;;12.40;99.90;;;;;;5092282;28;20401;-74
2023/01/01 02:17:45;;;;;;;39.75;28.33;;;12.40;99.90;;;;;;5091842;28;20406;-75
2023/01/01 02:20:23;;;;;;;41.78;28.60;;;12.40;99.90;;;;;;5092480;28;20402;-74
2023/01/01 02:23:01;;;;;;;41.55;29.77;;;12.30;99.90;;;;;;5093936;28;20413;-74
2023/01/01 02:25:45;;;;;;;45.92;30.17;;;12.30;99.90;;;;;;5095763;28;20440;-74
2023/01/01 02:28:29;;;;;;;44.50;31.98;;;12.30;99.90;;;;;;5086594;28;20468;-74
2023/01/01 02:30:56;;;;;;;45.70;32.20;;;12.20;99.90;;;;;;5084780;28;20417;-74
2023/01/01 02:33:25;;;;;;;48.38;33.15;;;12.20;99.90;;;;;;5090097;28;20390;-74
2023/01/01 02:36:03;;;;;;;46.10;33.50;;;12.20;99.90;;;;;;5092711;28;20433;-74
2023/01/01 02:38:48;;;;;;;50.45;34.88;;;12.10;99.90;;;;;;5092653;28;20491;-74
2023/01/01 02:41:33;;;;;;;48.83;32.80;;;12.10;99.90;;;;;;5068871;28;20402;-74
2023/01/01 02:43:59;;;;;;;43.17;31.60;;;12.10;99.90;;;;;;5090934;28;20422;-74
2023/01/01 02:46:33;;;;;;;45.70;31.13;;;12.10;99.90;;;;;;5072248;28;20451;-74
2023/01/01 02:48:59;;;;;;;42.42;29.83;;;12.10;99.90;;;;;;5092428;28;20413;-74
2023/01/01 02:51:57;;;;;;;44.58;29.63;;;12.10;99.90;;;;;;5096072;28;20401;-74
2023/01/01 02:54:38;;;;;;;43.25;27.23;;;12.10;99.90;;;;;;5088184;28;20488;-74
2023/01/01 02:57:29;;;;;;;36.88;25.77;;;12.20;99.90;;;;;;5093543;28;20459;-74
2023/01/01 03:03:16;;;;;;;35.40;23.27;;;12.30;99.90;;;;;;5092116;28;20444;-74
2023/01/01 03:06:22;;;;;;;34.40;21.83;;;12.20;99.90;;;;;;5073359;28;20456;-74
2023/01/01 03:08:50;;;;;;;35.67;23.85;;;12.30;99.90;;;;;;5090233;28;21269;-74
2023/01/01 03:11:19;;;;;;;37.93;24.00;;;12.30;99.90;;;;;;5090843;28;20410;-74
2023/01/01 03:14:05;;;;;;;34.33;23.27;;;12.30;99.90;;;;;;5089294;28;21056;-74
2023/01/01 03:17:14;;;;;;;33.23;22.03;;;12.30;99.90;;;;;;5092435;28;20523;-74
2023/01/01 03:19:41;;;;;;;32.53;19.05;;;12.20;99.90;;;;;;5081162;28;20406;-74
2023/01/01 03:22:11;;;;;;;28.25;18.27;;;12.20;99.90;;;;;;5090150;28;20445;-74
2023/01/01 03:24:43;;;;;;;30.88;18.92;;;12.30;99.90;;;;;;5090577;28;20756;-74
2023/01/01 03:27:29;;;;;;;30.55;20.10;;;12.30;99.90;;;;;;5088970;28;20493;-74
2023/01/01 03:29:58;;;;;;;30.35;20.70;;;12.30;99.90;;;;;;5091176;28;20419;-74
2023/01/01 03:32:59;;;;;;;33.30;20.42;;;12.30;99.90;;;;;;5090516;28;20444;-74
2023/01/01 03:35:17;;;;;;;30.03;19.00;;;12.20;99.90;;;;;;5088498;28;20452;-74
2023/01/01 03:37:47;;;;;;;29.05;16.27;;;12.20;99.90;;;;;;5093793;28;20415;-74
2023/01/01 03:40:13;;;;;;;24.27;14.53;;;12.10;99.90;;;;;;5090594;28;20406;-74
2023/01/01 03:42:50;;;;;;;24.60;14.30;;;12.10;99.90;;;;;;5089399;28;20451;-74
2023/01/01 03:45:18;;;;;;;26.15;15.05;;;12.10;99.90;;;;;;5091514;28;20775;-74
2023/01/01 03:47:44;;;;;;;24.17;14.05;;;12.00;99.90;;;;;;5088498;28;20421;-74
2023/01/01 03:50:11;;;;;;;27.20;15.63;;;11.90;99.90;;;;;;5088367;28;20918;-74
2023/01/01 03:52:48;;;;;;;28.65;15.52;;;11.80;99.90;;;;;;5077747;28;20417;-75
2023/01/01 03:55:23;;;;;;;24.25;13.75;;;11.80;99.90;;;;;;5088576;28;20982;-74
2023/01/01 03:58:06;;;;;;;30.75;15.93;;;11.70;99.90;;;;;;5088831;28;20481;-74
2023/01/01 04:00:55;;;;;;;19.70;10.68;;;11.60;99.90;;;;;;5087367;28;20416;-74
2023/01/01 04:03:23;;;;;;;23.73;12.25;;;11.60;99.90;;;;;;5088356;28;20429;-74
2023/01/01 04:05:49;;;;;;;24.40;12.50;;;11.60;99.90;;;;;;5071036;28;20449;-74
2023/01/01 04:08:16;;;;;;;23.77;13.07;;;11.50;99.90;;;;;;5090007;28;20807;-74
2023/01/01 04:10:46;;;;;;;23.92;12.32;;;11.50;99.90;;;;;;5090233;28;20398;-74
2023/01/01 04:13:12;;;;;;;21.17;12.15;;;11.50;99.90;;;;;;5089685;28;20487;-74
2023/01/01 04:15:38;;;;;;;22.15;12.38;;;11.50;99.90;;;;;;5090362;28;20439;-74
2023/01/01 04:18:04;;;;;;;24.48;12.48;;;11.50;99.90;;;;;;5092176;28;20402;-74
2023/01/01 04:20:30;;;;;;;19.70;11.40;;;11.50;99.90;;;;;;5090786;28;20410;-74
2023/01/01 04:22:57;;;;;;;19.60;9.57;;;11.40;99.90;;;;;;5075961;28;20397;-74
2023/01/01 04:25:23;;;;;;;16.77;7.95;;;11.50;99.90;;;;;;5090399;28;20436;-74
2023/01/01 04:27:49;;;;;;;12.40;6.63;;;11.50;99.90;;;;;;5093141;28;20436;-74
2023/01/01 04:30:15;;;;;;;14.38;6.25;;;11.50;99.90;;;;;;5091196;28;20437;-75
2023/01/01 04:32:41;;;;;;;13.30;5.43;;;11.50;99.90;;;;;;5094746;28;20400;-74
2023/01/01 04:35:10;;;;;;;11.57;5.55;;;11.50;99.90;;;;;;5090666;28;20410;-74
2023/01/01 04:37:36;;;;;;;11.13;5.10;;;11.60;99.90;;;;;;5092650;28;20451;-74
2023/01/01 04:40:03;;;;;;;13.65;5.15;;;11.60;99.90;;;;;;5092059;28;20491;-74
2023/01/01 04:42:29;;;;;;;11.07;4.45;;;11.60;99.90;;;;;;5093668;28;20769;-74
2023/01/01 04:44:54;;;;;;;10.90;3.95;;;11.70;99.90;;;;;;5090727;28;20492;-74
2023/01/01 04:47:21;;;;;;;9.23;3.27;;;11.70;99.90;;;;;;5093536;28;20443;-74
2023/01/01 04:49:46;;;;;;;12.13;3.47;;;11.70;99.90;;;;;;5092014;28;20406;-74
2023/01/01 04:52:12;;;;;;;11.20;3.47;;;11.70;99.90;;;;;;5095370;28;20433;-74
2023/01/01 04:54:38;;;;;;;10.27;3.40;;;11.70;99.90;;;;;;5092111;28;20406;-74
2023/01/01 04:57:03;;;;;;;14.02;3.70;;;11.70;99.90;;;;;;5093674;28;21059;-74
2023/01/01 04:59:29;;;;;;;14.60;3.70;;;11.70;99.90;;;;;;5090443;28;20485;-74
2023/01/01 05:01:56;;;;;;;13.20;3.60;;;11.70;99.90;;;;;;5089919;28;20596;-75
2023/01/01 05:04:21;;;;;;;14.23;3.87;;;11.70;99.90;;;;;;5091256;28;20444;-74
2023/01/01 05:06:47;;;;;;;14.68;4.15;;;11.70;99.90;;;;;;5093091;28;20418;-74
2023/01/01 05:09:12;;;;;;;12.23;4.47;;;11.70;99.90;;;;;;5089129;28;20795;-74
2023/01/01 05:11:38;;;;;;;16.35;5.00;;;11.70;99.90;;;;;;5090503;28;20878;-74
2023/01/01 05:14:04;;;;;;;14.52;4.47;;;11.70;99.90;;;;;;5086316;28;20460;-74
2023/01/01 05:16:33;;;;;;;16.37;5.30;;;11.70;99.90;;;;;;5087225;28;20430;-74
2023/01/01 05:18:59;;;;;;;13.77;5.10;;;11.70;99.90;;;;;;5085991;28;20764;-74
2023/01/01 05:21:27;;;;;;;14.20;5.22;;;11.70;99.90;;;;;;5085556;28;20417;-74
2023/01/01 05:23:55;;;;;;;12.88;4.85;;;11.70;99.90;;;;;;5087966;28;20406;-74
2023/01/01 05:26:22;;;;;;;15.27;4.88;;;11.60;99.90;;;;;;5090594;28;20488;-74
2023/01/01 05:28:49;;;;;;;11.50;3.78;;;11.60;99.90;;;;;;5089520;28;20911;-74
2023/01/01 05:31:18;;;;;;;12.43;3.95;;;11.60;99.90;;;;;;5091649;28;21436;-74
2023/01/01 05:33:44;;;;;;;10.23;3.00;;;11.60;99.90;;;;;;5088120;28;20408;-74
2023/01/01 05:36:15;;;;;;;11.50;2.73;;;11.70;99.90;;;;;;5092783;28;20517;-74
2023/01/01 05:38:41;;;;;;;11.50;3.00;;;11.70;99.90;;;;;;5088120;28;20418;-74
2023/01/01 05:41:08;;;;;;;9.45;2.75;;;11.70;99.90;;;;;;5089310;28;20405;-74
2023/01/01 05:43:34;;;;;;;8.37;2.50;;;11.70;99.90;;;;;;5090705;28;20398;-74
2023/01/01 05:46:20;;;;;;;10.38;2.78;;;11.70;99.90;;;;;;5091421;28;20405;-74
2023/01/01 05:48:46;;;;;;;9.85;2.50;;;11.70;99.90;;;;;;5088785;28;20414;-74
2023/01/01 05:51:15;;;;;;;10.00;2.80;;;11.70;99.90;;;;;;5089104;28;20451;-74
2023/01/01 05:53:43;;;;;;;8.77;2.43;;;11.80;99.90;;;;;;5092241;28;20407;-74
2023/01/01 05:56:09;;;;;;;11.20;2.50;;;11.80;99.90;;;;;;5089807;28;20465;-74
2023/01/01 05:58:35;;;;;;;9.65;2.40;;;11.80;99.90;;;;;;5087634;28;20406;-74
2023/01/01 06:01:23;;;;;;;11.50;2.70;;;11.70;99.90;;;;;;5083924;28;20409;-74
2023/01/01 06:03:49;;;;;;;9.88;2.47;;;11.80;99.90;;;;;;5086384;28;20571;-74
2023/01/01 06:06:17;;;;;;;7.27;2.57;;;11.80;99.90;;;;;;5086347;28;20780;-74
2023/01/01 06:08:52;;;;;;;9.65;2.70;;;11.80;99.90;;;;;;5088914;28;20433;-74
2023/01/01 06:11:18;;;;;;;9.93;2.33;;;11.70;99.90;;;;;;5090177;28;20406;-74
2023/01/01 06:13:43;;;;;;;7.18;2.10;;;11.70;99.90;;;;;;5090630;28;20409;-74
2023/01/01 06:16:10;;;;;;;8.00;1.70;;;11.80;99.90;;;;;;5090679;28;20430;-74
2023/01/01 06:18:35;;;;;;;7.13;1.67;;;11.80;99.90;;;;;;5090734;28;20425;-74
2023/01/01 06:21:05;;;;;;;7.50;1.75;;;11.80;99.90;;;;;;5089365;28;20945;-74
2023/01/01 06:23:31;;;;;;;6.32;1.73;;;11.90;99.90;;;;;;5089806;28;20446;-74
2023/01/01 06:26:10;;;;;;;6.63;1.75;;;11.90;99.90;;;;;;5089781;28;20907;-74
2023/01/01 06:28:36;;;;;;;7.22;1.58;;;11.80;99.90;;;;;;5091181;28;20402;-74
2023/01/01 06:31:03;;;;;;;7.82;1.25;;;11.80;99.90;;;;;;5073098;28;20401;-74
2023/01/01 06:33:30;;;;;;;7.13;1.57;;;11.80;99.90;;;;;;5089832;28;20881;-74
2023/01/01 06:35:56;;;;;;;5.68;1.00;;;11.80;99.90;;;;;;5090352;28;20440;-74
2023/01/01 06:38:21;;;;;;;8.10;1.50;;;11.70;99.90;;;;;;5091199;28;20398;-74
2023/01/01 06:41:01;;;;;;;5.75;1.20;;;11.80;99.90;;;;;;5090278;28;20401;-74
2023/01/01 06:43:28;;;;;;;6.32;1.10;;;11.80;99.90;;;;;;5089856;28;20402;-74
2023/01/01 06:46:06;;;;;;;6.18;1.15;;;11.80;99.90;;;;;;5072466;28;20855;-74
2023/01/01 06:48:35;;;;;;;7.15;1.13;;;11.80;99.90;;;;;;5091012;28;20405;-74
2023/01/01 06:51:09;;;;;;;6.72;1.02;;;11.80;99.90;;;;;;5091428;28;20480;-74
2023/01/01 06:53:35;;;;;;;6.82;1.15;;;11.80;99.90;;;;;;5090541;28;20428;-74
2023/01/01 06:56:01;;;;;;;8.02;1.45;;;11.80;99.90;;;;;;5091563;28;20432;-74
2023/01/01 06:58:26;;;;;;;6.40;1.03;;;11.80;99.90;;;;;;5090879;28;20402;-74
2023/01/01 07:00:52;;;;;;;5.15;0.70;;;11.80;99.90;;;;;;5091133;28;20394;-74
2023/01/01 07:03:17;;;;;;;5.23;0.83;;;11.80;99.90;;;;;;5091050;28;20421;-74
2023/01/01 07:05:43;;;;;;;5.97;1.08;;;11.80;99.90;;;;;;5072871;28;20488;-74
2023/01/01 07:08:09;;;;;;;6.73;1.53;;;11.80;99.90;;;;;;5089148;28;20833;-74
2023/01/01 07:10:34;;;;;;;7.07;1.00;;;11.80;99.90;;;;;;5089279;28;20406;-74
2023/01/01 07:13:00;;;;;;;7.70;0.83;;;11.80;99.90;;;;;;5072299;28;20454;-74
2023/01/01 07:15:26;;;;;;;9.73;1.30;;;11.70;99.90;;;;;;5090358;28;20418;-74
2023/01/01 07:17:52;;;;;;;8.88;1.52;;;11.70;99.90;;;;;;5089776;28;20768;-74
2023/01/01 07:20:18;;;;;;;6.47;0.93;;;11.70;99.90;;;;;;5088377;28;20402;-74
2023/01/01 07:22:43;;;;;;;5.23;1.00;;;11.70;99.90;;;;;;5089742;28;20804;-74
2023/01/01 07:25:13;;;;;;;9.03;1.27;;;11.60;99.90;;;;;;5090182;28;20477;-74
2023/01/01 07:27:39;;;;;;;9.10;1.33;;;11.60;99.90;;;;;;5088764;28;20501;-74
2023/01/01 07:30:05;;;;;;;9.70;1.03;;;11.60;99.90;;;;;;5088341;28;20493;-74
2023/01/01 07:32:31;;;;;;;9.65;1.05;;;11.60;99.90;;;;;;5089962;28;20918;-75
2023/01/01 07:34:56;;;;;;;8.88;1.42;;;11.60;99.90;;;;;;5090970;28;20406;-75
2023/01/01 07:37:25;;;;;;;9.30;1.17;;;11.50;99.90;;;;;;5088746;28;20853;-74
2023/01/01 07:39:51;;;;;;;8.23;1.38;;;11.50;99.90;;;;;;5089810;28;20410;-74
2023/01/01 07:42:17;;;;;;;11.45;1.63;;;11.50;99.90;;;;;;5091031;28;20587;-74
2023/01/01 07:44:42;;;;;;;10.13;2.15;;;11.50;99.90;;;;;;5090007;28;20481;-74
2023/01/01 07:47:20;;;;;;;12.30;1.57;;;11.50;99.90;;;;;;5090052;28;20414;-74
2023/01/01 07:49:45;;;;;;;13.23;1.88;;;11.40;99.90;;;;;;5088770;28;20428;-74
2023/01/01 07:52:11;;;;;;;9.10;1.30;;;11.40;99.90;;;;;;5090665;28;20409;-74
2023/01/01 07:54:36;;;;;;;14.68;2.25;;;11.40;99.90;;;;;;5091315;28;20776;-75
2023/01/01 07:57:02;;;;;;;9.17;1.70;;;11.30;99.90;;;;;;5091909;28;20454;-76
2023/01/01 07:59:28;;;;;;;14.27;1.80;;;11.30;99.90;;;;;;5089875;28;20794;-74
2023/01/01 08:01:53;;;;;;;12.43;1.60;;;11.20;99.90;;;;;;5092113;28;20406;-74
2023/01/01 08:04:19;;;;;;;12.05;1.63;;;11.20;99.90;;;;;;5090072;28;20409;-74
2023/01/01 08:06:44;;;;;;;13.20;1.97;;;11.20;99.90;;;;;;5087966;28;20435;-74
2023/01/01 08:09:10;;;;;;;14.45;2.05;;;11.20;99.90;;;;;;5090223;28;20409;-74
2023/01/01 08:11:36;;;;;;;13.63;1.77;;;11.20;99.90;;;;;;5088733;28;20883;-74
2023/01/01 08:14:01;;;;;;;12.27;2.10;;;11.20;99.90;;;;;;5093360;28;20543;-74
2023/01/01 08:16:27;;;;;;;10.80;1.73;;;11.20;99.90;;;;;;5092838;28;20422;-74
2023/01/01 08:18:52;;;;;;;9.95;1.38;;;11.20;99.90;;;;;;5092114;28;20416;-74
2023/01/01 08:21:18;;;;;;;14.50;1.90;;;11.20;99.90;;;;;;5095723;28;20929;-74
2023/01/01 08:23:44;;;;;;;12.75;2.50;;;11.20;99.90;;;;;;5087761;28;20437;-74
2023/01/01 08:26:17;;;;;;;15.80;2.23;;;11.20;99.90;;;;;;5091869;28;20431;-74
2023/01/01 08:28:43;;;;;;;14.80;2.00;;;11.20;99.90;;;;;;5080628;28;20422;-75
2023/01/01 08:31:09;;;;;;;15.77;2.47;;;11.30;99.90;;;;;;5084566;28;21005;-74
2023/01/01 08:33:35;;;;;;;15.63;2.15;;;11.20;99.90;;;;;;5081984;28;20402;-74
2023/01/01 08:36:01;;;;;;;11.80;2.10;;;11.30;99.90;;;;;;5080536;28;20447;-74
2023/01/01 08:38:26;;;;;;;11.85;1.90;;;11.20;99.90;;;;;;5084259;28;20408;-74
2023/01/01 08:40:52;;;;;;;12.23;1.93;;;11.20;99.90;;;;;;5090525;28;20755;-74
2023/01/01 08:43:17;;;;;;;13.23;2.70;;;11.20;99.90;;;;;;5081946;28;20396;-74
2023/01/01 08:45:44;;;;;;;14.00;2.78;;;11.20;99.90;;;;;;5090278;28;20400;-74
2023/01/01 08:48:10;;;;;;;13.05;1.98;;;11.20;99.90;;;;;;5082177;28;20415;-74
2023/01/01 08:50:36;;;;;;;15.02;2.20;;;11.20;99.90;;;;;;5075691;28;20402;-75
2023/01/01 08:53:02;;;;;;;15.05;2.20;;;11.20;99.90;;;;;;5070797;28;20399;-75
2023/01/01 08:55:28;;;;;;;18.67;2.78;;;11.30;99.90;;;;;;5076139;28;20817;-74
2023/01/01 08:57:53;;;;;;;16.13;2.22;;;11.30;99.90;;;;;;5081053;28;20429;-74
2023/01/01 09:00:19;;;;;;;12.13;2.87;;;11.30;99.90;;;;;;5075512;28;21374;-75
2023/01/01 09:02:45;;;;;;;16.73;3.25;;;11.30;99.90;;;;;;5079609;28;20398;-75
2023/01/01 09:05:10;;;;;;;16.33;2.80;;;11.30;99.90;;;;;;5070892;28;20900;-75
2023/01/01 09:07:36;;;;;;;16.52;2.38;;;11.30;99.90;;;;;;5081629;28;20402;-75
2023/01/01 09:10:02;;;;;;;14.40;2.15;;;11.30;99.90;;;;;;5084053;28;20406;-75
2023/01/01 09:12:28;;;;;;;17.23;2.92;;;11.30;99.90;;;;;;5080657;28;20447;-74
2023/01/01 09:14:54;;;;;;;15.95;2.25;;;11.30;99.90;;;;;;5083186;28;20398;-75
2023/01/01 09:17:20;;;;;;;19.33;2.90;;;11.30;99.90;;;;;;5078858;28;20428;-74
2023/01/01 09:19:45;;;;;;;16.97;2.60;;;11.40;99.90;;;;;;5088667;28;20400;-74
2023/01/01 09:22:11;;;;;;;21.02;3.42;;;11.30;99.90;;;;;;5074261;28;20438;-75
2023/01/01 09:24:38;;;;;;;19.50;2.90;;;11.30;99.90;;;;;;5087456;28;20416;-75
2023/01/01 09:27:04;;;;;;;18.83;3.17;;;11.30;99.90;;;;;;5081354;28;20429;-75
2023/01/01 09:29:29;;;;;;;13.32;2.33;;;11.30;99.90;;;;;;5073902;28;20944;-75
2023/01/01 09:31:55;;;;;;;20.08;2.83;;;11.30;99.90;;;;;;5067721;28;20951;-75
2023/01/01 09:34:21;;;;;;;12.30;1.90;;;11.40;99.90;;;;;;5094171;28;20409;-75
2023/01/01 09:36:46;;;;;;;21.13;2.63;;;11.40;99.90;;;;;;5091978;28;20871;-75
2023/01/01 09:39:14;;;;;;;14.43;2.80;;;11.40;99.90;;;;;;5077694;28;20446;-75
2023/01/01 09:42:13;;;;;;;16.33;2.85;;;11.40;99.90;;;;;;5087644;28;20425;-75
2023/01/01 09:45:14;;;;;;;20.85;2.50;;;11.40;99.90;;;;;;5090390;28;20489;-75
2023/01/01 09:47:45;;;;;;;14.60;2.38;;;11.40;99.90;;;;;;5061053;28;20444;-75
2023/01/01 09:50:27;;;;;;;16.80;2.85;;;11.40;99.90;;;;;;5082212;28;20491;-75
2023/01/01 09:52:56;;;;;;;17.77;3.00;;;11.50;99.90;;;;;;5085080;28;20412;-74
2023/01/01 09:55:40;;;;;;;14.80;2.85;;;11.50;99.90;;;;;;5076903;28;20404;-74
2023/01/01 09:58:09;;;;;;;16.02;2.58;;;11.50;99.90;;;;;;5079657;28;21075;-74
2023/01/01 10:00:38;;;;;;;16.52;2.90;;;11.50;99.90;;;;;;5074276;28;20415;-74
2023/01/01 10:03:25;;;;;;;16.75;2.42;;;11.60;99.90;;;;;;5082174;28;20837;-75
2023/01/01 10:05:59;;;;;;;16.63;2.30;;;11.60;99.90;;;;;;5091299;28;20436;-74
2023/01/01 10:08:37;;;;;;;16.35;2.47;;;11.60;99.90;;;;;;5095035;28;20398;-74
2023/01/01 10:11:18;;;;;;;19.63;3.30;;;11.70;99.90;;;;;;5089265;28;20918;-74
2023/01/01 10:13:45;;;;;;;17.20;2.88;;;11.70;99.90;;;;;;5089917;28;20418;-75
2023/01/01 10:16:21;;;;;;;21.02;2.70;;;11.80;99.90;;;;;;5079629;28;20893;-74
2023/01/01 10:18:54;;;;;;;15.27;2.30;;;11.80;99.90;;;;;;5088420;28;20749;-74
2023/01/01 10:21:31;;;;;;;16.03;2.80;;;11.80;99.90;;;;;;5089345;28;20405;-74
2023/01/01 10:24:18;;;;;;;16.03;2.37;;;11.90;99.90;;;;;;5089801;28;20402;-74
2023/01/01 10:26:44;;;;;;;15.18;2.20;;;11.90;99.90;;;;;;5079240;28;20410;-74
2023/01/01 10:29:22;;;;;;;17.67;2.72;;;12.00;99.90;;;;;;5088984;28;20393;-74
2023/01/01 10:31:48;;;;;;;16.80;2.38;;;12.10;99.90;;;;;;5088503;28;20501;-74
2023/01/01 10:34:15;;;;;;;15.27;2.30;;;12.10;99.90;;;;;;5090242;28;20487;-74
2023/01/01 10:36:42;;;;;;;15.13;2.65;;;12.10;99.90;;;;;;5085843;28;20442;-74
2023/01/01 10:39:16;;;;;;;15.50;2.83;;;12.00;99.90;;;;;;5088950;28;20412;-74
2023/01/01 10:41:42;;;;;;;16.33;2.78;;;12.00;99.90;;;;;;5087679;28;20434;-74
2023/01/01 10:44:09;;;;;;;18.58;2.55;;;12.00;99.90;;;;;;5091369;28;20412;-74
2023/01/01 10:46:38;;;;;;;14.80;2.67;;;11.90;99.90;;;;;;5086093;28;20417;-74
2023/01/01 10:49:10;;;;;;;14.88;2.58;;;11.90;99.90;;;;;;5087573;28;20812;-74
2023/01/01 10:51:43;;;;;;;12.77;1.70;;;11.90;99.90;;;;;;5085172;28;20435;-74
2023/01/01 10:54:26;;;;;;;18.30;3.03;;;11.90;99.90;;;;;;5089400;28;20505;-74
2023/01/01 10:56:52;;;;;;;14.47;2.43;;;11.90;99.90;;;;;;5087632;28;20424;-74
2023/01/01 10:59:38;;;;;;;17.33;2.67;;;11.90;99.90;;;;;;5092002;28;20926;-74
2023/01/01 11:02:15;;;;;;;14.75;2.28;;;11.80;99.90;;;;;;5094148;28;20424;-74
2023/01/01 11:04:40;;;;;;;20.35;2.75;;;11.80;99.90;;;;;;5094136;28;20425;-74
2023/01/01 11:07:06;;;;;;;14.87;2.60;;;11.80;99.90;;;;;;5093080;28;20430;-74
2023/01/01 11:09:35;;;;;;;12.55;2.00;;;11.90;99.90;;;;;;5090795;28;20824;-74
2023/01/01 11:12:07;;;;;;;13.75;2.00;;;12.00;99.90;;;;;;5089026;28;20409;-74
2023/01/01 11:14:53;;;;;;;12.20;2.05;;;12.10;99.90;;;;;;5079492;28;20423;-74
2023/01/01 11:17:32;;;;;;;17.33;2.67;;;12.20;99.90;;;;;;5080737;28;20469;-74
2023/01/01 11:19:59;;;;;;;15.02;2.28;;;12.30;99.90;;;;;;5089302;28;20441;-74
2023/01/01 11:22:39;;;;;;;15.05;2.05;;;12.50;99.90;;;;;;5089719;28;20485;-74
2023/01/01 11:25:16;;;;;;;13.77;2.03;;;12.60;99.90;;;;;;5090316;28;20398;-74
2023/01/01 11:27:41;;;;;;;14.13;1.85;;;12.60;99.90;;;;;;5091114;28;20919;-74
2023/01/01 11:30:26;;;;;;;12.13;2.00;;;12.70;99.90;;;;;;5091272;28;20410;-74
2023/01/01 11:32:58;;;;;;;13.83;2.03;;;12.60;99.90;;;;;;5090441;28;20409;-75
2023/01/01 11:35:28;;;;;;;11.18;1.67;;;12.70;99.90;;;;;;5088238;28;20402;-75
2023/01/01 11:37:55;;;;;;;13.20;2.35;;;12.60;99.90;;;;;;5102584;28;20440;-74
2023/01/01 11:40:45;;;;;;;13.33;1.60;;;12.60;99.90;;;;;;5075564;28;20463;-74
2023/01/01 11:43:20;;;;;;;13.13;1.75;;;12.50;99.90;;;;;;5079997;28;20402;-74
2023/01/01 11:45:46;;;;;;;13.60;1.70;;;12.40;99.90;;;;;;5088580;28;20483;-74
2023/01/01 11:48:33;;;;;;;11.93;2.03;;;12.40;99.90;;;;;;5091961;28;20406;-74
2023/01/01 11:51:10;;;;;;;11.65;1.55;;;12.30;99.90;;;;;;5069190;28;20464;-74
2023/01/01 11:53:40;;;;;;;13.65;1.75;;;12.20;99.90;;;;;;5093875;28;20400;-74
2023/01/01 11:56:17;;;;;;;11.73;2.10;;;12.20;99.90;;;;;;5091590;28;20422;-74
2023/01/01 11:58:56;;;;;;;12.23;1.90;;;12.20;99.90;;;;;;5088642;28;20934;-74
2023/01/01 12:01:27;;;;;;;11.80;1.48;;;12.20;99.90;;;;;;5094401;28;20406;-75
2023/01/01 12:04:26;;;;;;;10.30;1.77;;;12.30;99.90;;;;;;5088939;28;20900;-75
2023/01/01 12:07:04;;;;;;;10.52;1.45;;;12.30;99.90;;;;;;5088821;28;20409;-75
2023/01/01 12:09:49;;;;;;;12.32;1.60;;;12.40;99.90;;;;;;5090894;28;20417;-74
2023/01/01 12:12:33;;;;;;;9.85;2.08;;;12.40;99.90;;;;;;5079562;28;20967;-74
2023/01/01 12:15:17;;;;;;;11.60;1.75;;;12.40;99.90;;;;;;5091808;28;20479;-74
2023/01/01 12:17:48;;;;;;;13.65;1.70;;;12.50;99.90;;;;;;5087925;28;20406;-74
2023/01/01 12:20:44;;;;;;;11.35;1.85;;;12.60;99.90;;;;;;5076254;28;20410;-74
2023/01/01 12:23:11;;;;;;;11.93;1.70;;;12.80;99.90;;;;;;5087426;28;20410;-75
2023/01/01 12:25:48;;;;;;;12.20;2.05;;;12.80;99.90;;;;;;5089863;28;20453;-75
2023/01/01 12:28:19;;;;;;;16.83;2.70;;;12.70;99.90;;;;;;5086633;28;20444;-74
2023/01/01 12:31:08;;;;;;;12.05;2.10;;;12.60;99.90;;;;;;5074257;28;20422;-74
2023/01/01 12:33:36;;;;;;;10.98;1.83;;;12.60;99.90;;;;;;5079052;28;21044;-75
2023/01/01 12:36:09;;;;;;;12.82;2.10;;;12.50;99.90;;;;;;5070863;28;20426;-75
2023/01/01 12:38:44;;;;;;;11.38;1.58;;;12.40;99.90;;;;;;5089053;28;20421;-74
2023/01/01 12:41:19;;;;;;;11.88;2.47;;;12.40;99.90;;;;;;5085902;28;20406;-74
2023/01/01 12:44:00;;;;;;;12.20;2.40;;;12.50;99.90;;;;;;5087667;28;20409;-74
2023/01/01 12:46:48;;;;;;;12.73;1.90;;;12.50;99.90;;;;;;5077827;28;20497;-74
2023/01/01 12:49:26;;;;;;;11.25;1.77;;;12.60;99.90;;;;;;5084998;28;20414;-74
2023/01/01 12:52:20;;;;;;;12.60;2.60;;;12.70;99.90;;;;;;5087423;28;20497;-74
2023/01/01 12:55:04;;;;;;;11.70;2.22;;;12.80;99.90;;;;;;5096410;28;20422;-74
2023/01/01 12:58:12;;;;;;;12.15;2.13;;;12.70;99.90;;;;;;5086723;28;20509;-75
2023/01/01 13:00:40;;;;;;;12.53;1.70;;;12.70;99.90;;;;;;5064853;28;20947;-74